RJNG(METAR)
08/24 02:31
RJNG 231731Z 36002KT 9999 FEW007 SCT030 BKN090 23/22 Q1009 RMK
1ST007 4CU030 5AC090 A2980=
戻る
トップページへ戻る
IMOC Co,.Ltd.